Main page
Satellite images 15-day forecastsClimateMarine weather Cyclones Lightning AirportsFAQ Newsletter About
Weather : Europe Africa North America South America Asia Australia-Oceania Others
Languages Contact

Munich, Germany

Franz-Josef-Strauß

latitude: 48-21N, longitude: 011-47E, elevation: 453 m


METAR: EDDM 220350Z 25015KT 9999 BKN026 03/00 Q1027 NOSIG
TAF: EDDM 212300Z 2200/2306 25012KT 9999 SCT040 PROB30 TEMPO 2202/2218 26015G25KT

Time: 05:09 (04:09 UTC)

Current weather observation

The report was made 19 minutes ago, at 03:50 UTC
Wind 15 kt from the West/Southwest
Temperature 3°C
Humidity 81%
Pressure 1027 hPa
Visibility 10 km or more
Broken clouds at a height of 2600 ft

Change units

Forecast

The report was made 5 hours and 9 minutes ago, at 23:00 UTC
Forecast valid from 22 at 00 UTC to 23 at 06 UTC
Wind 12 kt from the West/Southwest
Visibility 10 km or more
Scattered clouds at a height of 4000 ft
Probability 30% :
Temporary
from 22 at 02 UTC to 22 at 18 UTC
Wind 15 kt from the West with gusts up to 25 kt
The information on this site is subject to a disclaimer
Weather : Europe Africa North America South America Asia Australia-Oceania Others
Satellite images 15-day forecastsClimateMarine weather Cyclones Lightning AirportsFAQ Languages Contact Newsletter About